Time;durP1;ratioP1;P1;durP2;ratioP2;P2;SDS_P1;SDS_P2;PMS_P1;PMS_P2;Temp;Humidity;BMP_temperature;BMP_pressure;BME280_temperature;BME280_humidity;BME280_pressure;Samples;Min_cycle;Max_cycle;Signal;HPM_P1;HPM_P2
2023/07/12 00:01:20;;;;;;;12.32;8.80;;;;;;;24.54;59.68;97903.16;5028689;28;20489;-82
2023/07/12 00:03:45;;;;;;;10.35;9.02;;;;;;;24.23;59.85;97917.75;5013628;28;20029;-83
2023/07/12 00:06:17;;;;;;;12.95;9.52;;;;;;;24.35;61.54;97912.13;5029035;28;20030;-82
2023/07/12 00:08:43;;;;;;;15.27;9.13;;;;;;;24.52;59.02;97919.91;5028623;28;20021;-83
2023/07/12 00:11:19;;;;;;;13.70;10.00;;;;;;;24.74;59.49;97937.44;5013518;28;20044;-83
2023/07/12 00:13:44;;;;;;;10.00;9.00;;;;;;;24.84;58.43;97936.84;5013734;28;20033;-83
2023/07/12 00:16:20;;;;;;;12.27;9.35;;;;;;;24.54;59.50;97936.69;5012126;28;20076;-82
2023/07/12 00:18:46;;;;;;;14.65;9.45;;;;;;;24.45;60.28;97921.69;5012077;28;20056;-82
2023/07/12 00:21:12;;;;;;;12.10;9.77;;;;;;;24.63;58.81;97928.28;5011670;28;20057;-83
2023/07/12 00:23:39;;;;;;;10.70;9.15;;;;;;;24.73;58.21;97932.31;5013134;28;20444;-83
2023/07/12 00:26:21;;;;;;;12.32;8.32;;;;;;;24.62;58.29;97932.13;5013005;28;20026;-82
2023/07/12 00:28:47;;;;;;;10.95;8.38;;;;;;;24.61;58.64;97927.84;5027938;28;20018;-83
2023/07/12 00:31:12;;;;;;;9.75;8.30;;;;;;;24.48;58.73;97931.91;5011897;28;20081;-82
2023/07/12 00:33:37;;;;;;;10.65;8.18;;;;;;;24.44;58.68;97936.50;5012736;28;20481;-83
2023/07/12 00:36:04;;;;;;;9.40;8.40;;;;;;;24.39;58.36;97934.06;5011404;28;20030;-83
2023/07/12 00:38:30;;;;;;;10.77;8.23;;;;;;;24.42;59.14;97963.31;5011278;28;20481;-82
2023/07/12 00:41:17;;;;;;;12.27;8.93;;;;;;;24.18;61.44;97922.75;5011712;28;20069;-83
2023/07/12 00:43:57;;;;;;;13.45;8.15;;;;;;;24.35;61.48;97944.88;5012830;28;20026;-82
2023/07/12 00:46:42;;;;;;;11.07;7.88;;;;;;;24.31;61.00;97949.47;5010597;28;20048;-82
2023/07/12 00:49:10;;;;;;;14.73;8.52;;;;;;;24.17;62.21;97930.13;5027816;28;20466;-83
2023/07/12 00:51:45;;;;;;;15.23;8.95;;;;;;;24.21;63.53;97941.09;5011687;28;20052;-83
2023/07/12 00:54:14;;;;;;;10.02;6.90;;;;;;;24.23;63.87;97931.41;5027807;28;20025;-83
2023/07/12 00:56:39;;;;;;;10.13;6.80;;;;;;;24.04;63.82;97923.19;5011126;28;20030;-82
2023/07/12 00:59:15;;;;;;;11.68;7.80;;;;;;;24.11;64.01;97928.84;5027862;28;20087;-83
2023/07/12 01:01:42;;;;;;;9.52;7.13;;;;;;;24.13;64.14;97933.94;5012527;28;20382;-83
2023/07/12 01:04:10;;;;;;;8.82;6.30;;;;;;;24.06;63.84;97914.69;5011513;28;20034;-83
2023/07/12 01:06:35;;;;;;;10.07;6.78;;;;;;;24.03;64.17;97907.19;5012399;28;20037;-83
2023/07/12 01:09:08;;;;;;;7.63;6.28;;;;;;;23.95;64.14;97892.63;5027294;28;20030;-83
2023/07/12 01:11:34;;;;;;;10.35;6.55;;;;;;;23.99;64.61;97895.41;5027713;28;20049;-83
2023/07/12 01:13:59;;;;;;;9.30;5.80;;;;;;;23.94;64.60;97901.19;4995323;28;20033;-83
2023/07/12 01:16:25;;;;;;;9.43;7.07;;;;;;;23.96;65.01;97920.69;5010879;28;20371;-83
2023/07/12 01:18:50;;;;;;;7.60;6.30;;;;;;;23.95;64.93;97941.72;5012241;28;20045;-83
2023/07/12 01:21:23;;;;;;;9.30;6.45;;;;;;;23.88;64.77;97910.75;5012599;28;20034;-83
2023/07/12 01:23:49;;;;;;;8.20;5.75;;;;;;;23.81;66.03;97916.84;5010926;28;20046;-82
2023/07/12 01:26:19;;;;;;;6.43;5.80;;;;;;;23.86;65.74;97927.47;5027253;28;20052;-83
2023/07/12 01:28:47;;;;;;;6.40;5.80;;;;;;;23.75;65.52;97913.63;5010843;28;20076;-84
2023/07/12 01:31:12;;;;;;;10.30;5.40;;;;;;;23.79;65.89;97917.22;5011434;28;20387;-83
2023/07/12 01:33:38;;;;;;;8.70;5.88;;;;;;;23.83;65.85;97911.84;5027219;28;20069;-83
2023/07/12 01:36:03;;;;;;;8.65;6.10;;;;;;;23.70;66.58;97919.34;5010838;28;20393;-83
2023/07/12 01:38:29;;;;;;;11.18;5.90;;;;;;;23.65;66.54;97897.88;4993316;28;20037;-83
2023/07/12 01:40:54;;;;;;;7.75;5.53;;;;;;;23.67;66.79;97909.19;5010454;28;20033;-83
2023/07/12 01:43:19;;;;;;;5.88;5.22;;;;;;;23.52;66.85;97901.06;5026868;28;20034;-83
2023/07/12 01:45:45;;;;;;;7.65;6.07;;;;;;;23.67;67.27;97920.09;5010232;28;20029;-83
2023/07/12 01:48:10;;;;;;;9.15;5.53;;;;;;;23.64;67.42;97920.00;5026677;28;20504;-83
2023/07/12 01:50:36;;;;;;;9.30;5.93;;;;;;;23.52;67.92;97928.31;4994275;28;20393;-83
2023/07/12 01:53:01;;;;;;;6.03;5.25;;;;;;;23.46;68.14;97907.94;5026983;28;20164;-83
2023/07/12 01:55:27;;;;;;;8.80;5.97;;;;;;;23.58;67.77;97905.88;5011737;28;20026;-83
2023/07/12 01:57:52;;;;;;;10.23;5.65;;;;;;;23.33;68.87;97933.66;5010405;28;20034;-82
2023/07/12 02:00:17;;;;;;;7.38;5.38;;;;;;;23.47;68.26;97937.53;5027250;28;20109;-83
2023/07/12 02:02:43;;;;;;;9.05;6.63;;;;;;;23.39;68.77;97946.69;5010496;28;20080;-83
2023/07/12 02:05:08;;;;;;;7.03;5.22;;;;;;;23.39;68.40;97952.16;5010551;28;20562;-83
2023/07/12 02:07:34;;;;;;;7.38;5.35;;;;;;;23.40;68.49;97937.38;5011402;28;20033;-83
2023/07/12 02:10:10;;;;;;;8.05;6.47;;;;;;;23.42;68.32;97958.78;5010530;28;20397;-83
2023/07/12 02:12:36;;;;;;;7.07;5.75;;;;;;;23.16;70.37;97951.16;5010534;28;20026;-82
2023/07/12 02:15:01;;;;;;;8.10;5.70;;;;;;;23.22;69.38;97943.53;5010310;28;20544;-83
2023/07/12 02:17:27;;;;;;;8.57;5.68;;;;;;;23.37;68.18;97965.28;5010027;28;20037;-83
2023/07/12 02:19:52;;;;;;;9.40;5.50;;;;;;;23.47;68.10;97980.31;5009829;28;20111;-83
2023/07/12 02:22:18;;;;;;;8.23;5.55;;;;;;;23.43;67.95;97965.84;5009970;28;20041;-83
2023/07/12 02:24:43;;;;;;;6.50;5.70;;;;;;;23.44;68.65;97981.81;5010187;28;20072;-83
2023/07/12 02:27:08;;;;;;;7.05;4.82;;;;;;;23.34;68.68;97960.56;5009962;28;20044;-83
2023/07/12 02:29:33;;;;;;;7.07;6.10;;;;;;;23.06;69.26;97954.41;5010198;28;20037;-82
2023/07/12 02:31:59;;;;;;;8.93;5.25;;;;;;;23.06;70.40;97970.75;5010138;28;20036;-82
2023/07/12 02:34:24;;;;;;;7.68;5.60;;;;;;;23.11;70.57;97992.25;4993601;28;20030;-83
2023/07/12 02:36:50;;;;;;;7.43;5.78;;;;;;;23.02;70.14;97967.16;5009751;28;20040;-83
2023/07/12 02:39:15;;;;;;;9.27;5.75;;;;;;;23.05;69.50;97967.22;5009814;28;20449;-83
2023/07/12 02:41:40;;;;;;;8.98;5.45;;;;;;;23.16;69.46;97981.09;4993551;28;20053;-83
2023/07/12 02:44:06;;;;;;;6.30;5.55;;;;;;;23.09;69.45;97970.03;5026175;28;20026;-83
2023/07/12 02:46:32;;;;;;;7.38;5.85;;;;;;;23.17;69.78;97979.19;5009450;28;20389;-83
2023/07/12 02:48:57;;;;;;;6.32;5.55;;;;;;;23.13;70.11;97967.41;5010291;28;20040;-82
2023/07/12 02:51:23;;;;;;;9.20;6.03;;;;;;;23.18;69.58;97957.03;4997597;28;20038;-83
2023/07/12 02:53:48;;;;;;;8.65;5.97;;;;;;;22.98;71.01;97977.13;4997134;28;20125;-83
2023/07/12 02:56:13;;;;;;;8.18;6.20;;;;;;;22.94;71.56;97970.81;5013454;28;20022;-83
2023/07/12 02:58:39;;;;;;;10.60;7.38;;;;;;;22.97;71.08;97976.38;5014696;28;20025;-83
2023/07/12 03:01:05;;;;;;;9.38;5.78;;;;;;;23.04;69.86;97957.47;5013675;28;20520;-83
2023/07/12 03:03:30;;;;;;;7.80;5.93;;;;;;;22.98;71.32;97958.06;5030745;28;20025;-82
2023/07/12 03:06:00;;;;;;;8.27;5.10;;;;;;;23.05;69.73;97958.25;5013222;28;20033;-83
2023/07/12 03:08:26;;;;;;;6.07;5.47;;;;;;;23.22;69.37;97976.19;5013562;28;20044;-82
2023/07/12 03:10:51;;;;;;;7.70;4.95;;;;;;;23.14;69.45;97969.78;5013607;28;20388;-83
2023/07/12 03:13:17;;;;;;;6.03;5.43;;;;;;;23.09;69.43;97953.69;5013272;28;20026;-82
2023/07/12 03:15:42;;;;;;;11.65;6.15;;;;;;;23.37;69.34;97969.97;4996648;28;20076;-83
2023/07/12 03:18:07;;;;;;;8.35;5.97;;;;;;;23.20;70.11;97941.13;5029649;28;20071;-83
2023/07/12 03:20:33;;;;;;;9.25;5.65;;;;;;;23.42;68.90;97973.22;5014575;28;20038;-83
2023/07/12 03:22:58;;;;;;;8.15;5.82;;;;;;;23.15;70.00;97968.66;5012872;28;20145;-83
2023/07/12 03:25:24;;;;;;;7.68;6.30;;;;;;;23.36;69.13;97962.94;5013209;28;20065;-83
2023/07/12 03:27:50;;;;;;;8.35;6.28;;;;;;;23.24;69.65;97952.91;4996460;28;20034;-83
2023/07/12 03:30:16;;;;;;;7.45;6.68;;;;;;;23.21;70.24;97967.22;5013902;28;20416;-83
2023/07/12 03:32:41;;;;;;;7.20;5.47;;;;;;;23.21;69.51;97963.72;5013180;28;20045;-83
2023/07/12 03:35:07;;;;;;;7.88;6.57;;;;;;;23.36;69.24;97977.34;4996306;28;20052;-83
2023/07/12 03:37:32;;;;;;;11.70;7.00;;;;;;;23.31;69.98;97991.19;4996264;28;20034;-83
2023/07/12 03:39:57;;;;;;;10.45;6.03;;;;;;;23.23;70.13;97997.63;5012670;28;20036;-83
2023/07/12 03:42:23;;;;;;;7.82;6.45;;;;;;;23.46;68.81;98006.78;5012520;28;20064;-83
2023/07/12 03:44:48;;;;;;;8.27;6.30;;;;;;;23.36;69.01;98014.69;5012193;28;20072;-83
2023/07/12 03:47:13;;;;;;;6.45;5.28;;;;;;;23.32;69.27;98016.50;5012310;28;20032;-83
2023/07/12 03:49:39;;;;;;;10.60;5.65;;;;;;;23.19;69.31;98021.25;5013736;28;20021;-83
2023/07/12 03:52:04;;;;;;;10.18;6.93;;;;;;;23.34;69.19;98034.09;4996256;28;20022;-83
2023/07/12 03:54:30;;;;;;;8.15;5.45;;;;;;;23.44;69.00;98046.41;5012301;28;20053;-83
2023/07/12 03:56:55;;;;;;;7.88;6.80;;;;;;;23.39;69.54;98043.97;5011820;28;20034;-83
2023/07/12 03:59:20;;;;;;;9.20;5.88;;;;;;;23.48;68.84;98056.25;4995832;28;20527;-83
2023/07/12 04:01:46;;;;;;;8.85;5.80;;;;;;;23.42;68.89;98057.66;5028382;28;20100;-83
2023/07/12 04:04:11;;;;;;;6.70;6.10;;;;;;;23.20;69.82;98060.16;5014494;28;20029;-83
2023/07/12 04:06:36;;;;;;;8.15;6.72;;;;;;;23.24;69.47;98074.66;5012407;28;20022;-83
2023/07/12 04:09:03;;;;;;;10.75;6.82;;;;;;;23.16;69.11;98062.78;5012586;28;20037;-83
2023/07/12 04:11:30;;;;;;;10.02;6.65;;;;;;;23.22;69.01;98060.59;5012589;28;20036;-82
2023/07/12 04:13:59;;;;;;;8.18;6.20;;;;;;;23.32;68.24;98058.16;5012076;28;20041;-82
2023/07/12 04:16:24;;;;;;;7.72;6.95;;;;;;;22.92;69.17;98055.53;5013076;28;20034;-82
2023/07/12 04:18:51;;;;;;;11.77;6.78;;;;;;;22.99;69.39;98069.34;5012335;28;20110;-82
2023/07/12 04:21:16;;;;;;;7.15;5.97;;;;;;;23.27;67.96;98071.22;5011559;28;20399;-82
2023/07/12 04:23:42;;;;;;;11.82;7.75;;;;;;;23.10;68.29;98070.44;4993411;28;20106;-82
2023/07/12 04:26:09;;;;;;;9.10;6.38;;;;;;;23.25;67.55;98087.94;5008747;28;20120;-81
2023/07/12 04:28:38;;;;;;;9.27;6.30;;;;;;;23.08;68.32;98083.59;5015987;28;20500;-82
2023/07/12 04:31:04;;;;;;;12.98;6.15;;;;;;;23.17;67.73;98072.53;5033474;28;20051;-82
2023/07/12 04:33:29;;;;;;;9.60;6.95;;;;;;;23.18;68.15;98078.75;5015733;28;20469;-82
2023/07/12 04:35:55;;;;;;;7.85;5.82;;;;;;;23.15;67.71;98074.03;5015832;28;20025;-82
2023/07/12 04:38:20;;;;;;;7.93;6.40;;;;;;;23.05;67.62;98067.94;5015804;28;20056;-82
2023/07/12 04:40:55;;;;;;;10.02;6.00;;;;;;;23.22;67.61;98096.00;5033231;28;20038;-82
2023/07/12 04:43:21;;;;;;;9.00;6.18;;;;;;;22.73;69.24;98088.06;5031976;28;20029;-82
2023/07/12 04:45:47;;;;;;;8.80;5.63;;;;;;;23.01;67.85;98077.97;5015679;28;20488;-82
2023/07/12 04:48:12;;;;;;;8.45;5.93;;;;;;;23.19;67.59;98093.97;5048262;28;20029;-83
2023/07/12 04:50:37;;;;;;;18.73;7.78;;;;;;;23.08;68.53;98097.22;5032204;28;20091;-83
2023/07/12 04:53:03;;;;;;;9.50;5.45;;;;;;;22.87;69.01;98098.53;5018508;28;20033;-83
2023/07/12 04:55:29;;;;;;;14.57;8.00;;;;;;;22.82;69.57;98101.53;5017546;28;20033;-83
2023/07/12 04:57:55;;;;;;;11.35;6.70;;;;;;;22.76;70.15;98111.84;5034351;28;20029;-83
2023/07/12 05:00:23;;;;;;;13.23;7.20;;;;;;;22.74;70.22;98122.28;5034210;28;20017;-83
2023/07/12 05:02:49;;;;;;;9.27;6.38;;;;;;;22.55;70.18;98118.56;5032315;28;20033;-83
2023/07/12 05:05:14;;;;;;;12.57;6.35;;;;;;;22.59;69.72;98119.47;5033300;28;20385;-83
2023/07/12 05:07:41;;;;;;;8.93;5.78;;;;;;;22.47;70.34;98130.38;5015365;28;20029;-83
2023/07/12 05:10:07;;;;;;;5.95;5.35;;;;;;;22.63;69.49;98123.91;5033164;28;20029;-83
2023/07/12 05:12:34;;;;;;;10.80;7.80;;;;;;;22.58;70.28;98134.22;5014958;28;20167;-83
2023/07/12 05:15:00;;;;;;;12.85;6.70;;;;;;;22.60;70.46;98126.53;5031481;28;20531;-84
2023/07/12 05:17:25;;;;;;;29.60;10.02;;;;;;;22.65;70.77;98142.63;5031334;28;20037;-84
2023/07/12 05:19:51;;;;;;;16.13;8.38;;;;;;;22.49;71.76;98139.00;5015741;28;20510;-83
2023/07/12 05:22:16;;;;;;;11.70;8.27;;;;;;;22.24;73.00;98157.25;5036220;28;20040;-83
2023/07/12 05:24:42;;;;;;;16.85;7.85;;;;;;;22.04;74.90;98175.28;5032376;28;20029;-84
2023/07/12 05:27:07;;;;;;;9.95;7.13;;;;;;;21.73;75.25;98177.72;5031888;28;20026;-85
2023/07/12 05:29:34;;;;;;;12.63;7.32;;;;;;;22.00;74.42;98200.75;5014881;28;20107;-84
2023/07/12 05:31:59;;;;;;;12.30;7.32;;;;;;;21.33;76.75;98182.13;5031715;28;20033;-85
2023/07/12 05:34:25;;;;;;;15.10;6.53;;;;;;;21.67;75.89;98214.34;5015431;28;20025;-85
2023/07/12 05:36:50;;;;;;;10.18;6.32;;;;;;;21.84;76.06;98229.72;4999143;28;20033;-83
2023/07/12 05:39:15;;;;;;;9.77;5.88;;;;;;;21.60;76.36;98219.56;5032967;28;20473;-82
2023/07/12 05:41:41;;;;;;;6.07;4.53;;;;;;;21.51;76.80;98208.78;5015791;28;20021;-83
2023/07/12 05:44:06;;;;;;;7.68;4.30;;;;;;;21.27;77.24;98240.50;5033002;28;20029;-82
2023/07/12 05:46:32;;;;;;;7.03;3.80;;;;;;;21.31;75.75;98241.41;5051244;28;20044;-83
2023/07/12 05:48:57;;;;;;;5.93;4.55;;;;;;;21.30;76.23;98245.22;5032439;28;20028;-83
2023/07/12 05:51:22;;;;;;;8.07;4.38;;;;;;;21.49;75.15;98243.63;5014935;28;20480;-83
2023/07/12 05:53:48;;;;;;;7.65;3.30;;;;;;;21.14;74.23;98236.13;5014502;28;20033;-83
2023/07/12 05:56:13;;;;;;;4.05;3.53;;;;;;;21.19;74.88;98257.63;5032483;28;20461;-83
2023/07/12 05:58:38;;;;;;;6.38;3.90;;;;;;;20.79;76.14;98249.91;5030142;28;20084;-82
2023/07/12 06:01:05;;;;;;;8.65;4.05;;;;;;;20.92;76.03;98251.56;5014893;28;20029;-83
2023/07/12 06:03:32;;;;;;;3.78;3.00;;;;;;;20.88;74.95;98260.72;5014709;28;20044;-81
2023/07/12 06:05:58;;;;;;;10.48;3.45;;;;;;;20.73;75.99;98264.78;5030276;28;20029;-79
2023/07/12 06:08:25;;;;;;;15.32;4.45;;;;;;;21.04;73.48;98280.72;5032381;28;20083;-80
2023/07/12 06:10:51;;;;;;;17.45;4.57;;;;;;;20.20;77.74;98248.28;5032762;28;20473;-81
2023/07/12 06:13:16;;;;;;;4.65;2.83;;;;;;;19.60;76.13;98256.59;5029888;28;20087;-80
2023/07/12 06:15:42;;;;;;;3.45;2.53;;;;;;;19.00;76.87;98264.69;5013553;28;20463;-80
2023/07/12 06:18:07;;;;;;;3.35;2.67;;;;;;;19.49;80.55;98295.13;5029939;28;20059;-80
2023/07/12 06:20:33;;;;;;;3.10;2.03;;;;;;;18.70;76.09;98290.72;5029736;28;20045;-80
2023/07/12 06:22:58;;;;;;;5.28;2.53;;;;;;;19.11;79.08;98284.91;5030890;28;20040;-78
2023/07/12 06:25:25;;;;;;;2.53;2.33;;;;;;;19.29;81.60;98288.41;5035326;28;20409;-79
2023/07/12 06:27:50;;;;;;;3.85;2.30;;;;;;;18.84;80.95;98271.69;5035246;28;20477;-82
2023/07/12 06:30:17;;;;;;;5.78;2.33;;;;;;;18.99;80.42;98292.88;5034254;28;20060;-82
2023/07/12 06:32:43;;;;;;;5.47;2.35;;;;;;;18.99;81.34;98282.03;5034245;28;20120;-82
2023/07/12 06:35:09;;;;;;;6.63;2.85;;;;;;;19.87;80.61;98282.50;5017699;28;20484;-82
2023/07/12 06:37:34;;;;;;;4.90;2.38;;;;;;;19.71;80.86;98286.81;5017801;28;20063;-82
2023/07/12 06:39:59;;;;;;;4.85;2.85;;;;;;;19.57;81.05;98288.94;5001034;28;20083;-82
2023/07/12 06:42:25;;;;;;;2.97;1.90;;;;;;;19.41;80.11;98284.00;5017908;28;20144;-82
2023/07/12 06:44:51;;;;;;;4.85;2.45;;;;;;;19.25;80.16;98282.84;5017366;28;20036;-84
2023/07/12 06:47:19;;;;;;;4.63;2.95;;;;;;;19.24;81.13;98286.66;5033812;28;20116;-82
2023/07/12 06:49:44;;;;;;;3.85;2.15;;;;;;;19.24;80.78;98285.88;5034097;28;20075;-82
2023/07/12 06:52:10;;;;;;;3.03;2.22;;;;;;;19.97;82.42;98282.16;5033983;28;20619;-81
2023/07/12 06:54:36;;;;;;;2.80;2.25;;;;;;;20.28;81.38;98298.19;5017570;28;20021;-82
2023/07/12 06:57:02;;;;;;;5.38;2.70;;;;;;;21.33;76.78;98280.69;5035016;28;20025;-82
2023/07/12 06:59:27;;;;;;;2.45;2.15;;;;;;;21.39;76.22;98279.34;5017694;28;20084;-82
2023/07/12 07:01:53;;;;;;;3.58;2.15;;;;;;;21.36;76.86;98280.00;5034053;28;20054;-82
2023/07/12 07:04:18;;;;;;;2.38;2.17;;;;;;;22.04;73.53;98286.72;5017634;28;20061;-84
2023/07/12 07:06:44;;;;;;;3.25;2.38;;;;;;;22.08;73.13;98282.19;5035683;28;20044;-82
2023/07/12 07:09:10;;;;;;;7.15;2.38;;;;;;;21.97;73.66;98291.13;5017880;28;20381;-82
2023/07/12 07:11:35;;;;;;;6.18;2.97;;;;;;;21.57;75.38;98299.00;5017414;28;20045;-82
2023/07/12 07:14:01;;;;;;;2.80;2.40;;;;;;;21.11;78.48;98293.78;5017312;28;20076;-84
2023/07/12 07:16:26;;;;;;;3.28;2.08;;;;;;;20.39;81.23;98291.28;5033447;28;20116;-85
2023/07/12 07:18:52;;;;;;;3.20;2.78;;;;;;;21.74;75.39;98298.03;5033289;28;20053;-82
2023/07/12 07:21:18;;;;;;;2.85;2.60;;;;;;;22.00;73.86;98283.09;5034686;28;20087;-82
2023/07/12 07:23:44;;;;;;;7.78;2.35;;;;;;;20.38;74.97;98301.31;5033726;28;20029;-82
2023/07/12 07:26:10;;;;;;;4.82;2.28;;;;;;;21.21;77.37;98305.03;5034762;28;20040;-84
2023/07/12 07:28:37;;;;;;;4.90;2.08;;;;;;;22.20;73.18;98303.97;5033116;28;20056;-83
2023/07/12 07:31:03;;;;;;;7.55;2.25;;;;;;;21.67;75.04;98290.44;5032924;28;20033;-84
2023/07/12 07:33:28;;;;;;;2.83;2.00;;;;;;;21.86;75.07;98298.91;5016710;28;20552;-83
2023/07/12 07:35:58;;;;;;;7.95;2.30;;;;;;;21.41;74.12;98287.94;5015803;28;20025;-84
2023/07/12 07:38:27;;;;;;;3.97;2.22;;;;;;;22.24;73.33;98304.09;5016652;28;20036;-84
2023/07/12 07:40:54;;;;;;;2.00;1.80;;;;;;;20.94;72.39;98300.09;5032943;28;20039;-84
2023/07/12 07:43:19;;;;;;;2.90;1.98;;;;;;;20.57;76.23;98298.22;5032769;28;20045;-84
2023/07/12 07:45:45;;;;;;;5.70;2.00;;;;;;;21.80;73.77;98277.69;5032434;28;20033;-84
2023/07/12 07:48:10;;;;;;;2.63;2.42;;;;;;;22.39;72.54;98303.41;5049664;28;20048;-84
2023/07/12 07:50:37;;;;;;;3.88;1.70;;;;;;;22.59;71.40;98288.97;5032766;28;20061;-84
2023/07/12 07:53:04;;;;;;;3.45;1.92;;;;;;;23.03;69.21;98288.03;5015918;28;20099;-84
2023/07/12 07:55:29;;;;;;;2.00;1.80;;;;;;;22.81;69.73;98277.63;5032458;28;20033;-84
2023/07/12 07:57:54;;;;;;;2.95;2.05;;;;;;;23.08;68.83;98278.81;5015688;28;20128;-84
2023/07/12 08:00:20;;;;;;;4.75;1.58;;;;;;;22.97;69.67;98285.88;5015909;28;20030;-84
2023/07/12 08:02:46;;;;;;;1.80;1.70;;;;;;;22.44;69.99;98286.09;5016210;28;20029;-84
2023/07/12 08:05:12;;;;;;;3.20;2.13;;;;;;;23.15;68.96;98292.66;5032367;28;20033;-84
2023/07/12 08:07:43;;;;;;;4.05;1.80;;;;;;;23.01;69.59;98295.75;5032046;28;20021;-84
2023/07/12 08:10:12;;;;;;;2.83;1.92;;;;;;;23.39;67.47;98289.91;5032169;28;20116;-85
2023/07/12 08:12:37;;;;;;;4.03;1.98;;;;;;;23.20;68.11;98286.19;5032295;28;20512;-85
2023/07/12 08:15:04;;;;;;;3.00;1.60;;;;;;;23.24;68.15;98292.53;5033296;28;20049;-84
2023/07/12 08:17:30;;;;;;;2.75;1.83;;;;;;;23.30;67.77;98293.88;5031964;28;20041;-84
2023/07/12 08:19:56;;;;;;;3.35;2.10;;;;;;;23.39;66.73;98283.66;5032026;28;20030;-83
2023/07/12 08:22:21;;;;;;;2.35;1.90;;;;;;;23.29;66.45;98241.31;5015358;28;20086;-84
2023/07/12 08:24:46;;;;;;;6.15;1.55;;;;;;;23.02;67.34;98272.03;5015436;28;20041;-82
2023/07/12 08:27:13;;;;;;;2.17;1.55;;;;;;;23.17;67.52;98292.31;5033219;28;20034;-84
2023/07/12 08:29:39;;;;;;;1.70;1.48;;;;;;;23.56;66.58;98292.34;5031757;28;20060;-84
2023/07/12 08:32:05;;;;;;;6.68;1.95;;;;;;;23.55;66.25;98288.00;5015267;28;20029;-84
2023/07/12 08:34:31;;;;;;;3.42;1.88;;;;;;;23.80;65.62;98308.59;5015375;28;20034;-84
2023/07/12 08:36:56;;;;;;;2.15;1.52;;;;;;;23.57;65.94;98310.25;5032738;28;20043;-84
2023/07/12 08:39:22;;;;;;;2.22;1.70;;;;;;;23.23;65.14;98283.56;5032926;28;20037;-84
2023/07/12 08:41:47;;;;;;;1.55;1.45;;;;;;;23.69;65.84;98296.59;5015240;28;20029;-85
2023/07/12 08:44:16;;;;;;;4.40;1.65;;;;;;;23.51;65.66;98292.56;5031744;28;20080;-84
2023/07/12 08:46:49;;;;;;;3.28;1.70;;;;;;;23.55;64.96;98274.38;5031456;28;20026;-84
2023/07/12 08:49:17;;;;;;;3.17;1.85;;;;;;;23.87;65.04;98326.28;5033028;28;20036;-85
2023/07/12 08:51:43;;;;;;;3.55;1.85;;;;;;;23.91;63.80;98308.06;5032904;28;20103;-84
2023/07/12 08:54:23;;;;;;;2.20;1.85;;;;;;;23.53;64.19;98301.19;5031561;28;20041;-84
2023/07/12 08:57:15;;;;;;;1.52;1.42;;;;;;;23.79;64.38;98326.06;5032482;28;20079;-84
2023/07/12 08:59:44;;;;;;;1.70;1.60;;;;;;;23.54;63.68;98285.63;5032899;28;20029;-84
2023/07/12 09:02:19;;;;;;;2.10;1.90;;;;;;;23.52;64.18;98307.00;5031201;28;20033;-84
2023/07/12 09:04:44;;;;;;;3.75;1.80;;;;;;;23.78;62.18;98320.97;5031254;28;20029;-84
2023/07/12 09:07:09;;;;;;;2.33;1.63;;;;;;;23.77;62.57;98297.56;5031014;28;20029;-84
2023/07/12 09:09:37;;;;;;;3.60;2.30;;;;;;;23.49;63.20;98305.75;5031092;28;20084;-84
2023/07/12 09:12:05;;;;;;;7.57;2.22;;;;;;;23.74;62.97;98304.50;4998493;28;20025;-84
2023/07/12 09:14:35;;;;;;;2.50;1.80;;;;;;;23.66;62.17;98307.38;5031049;28;20033;-84
2023/07/12 09:17:00;;;;;;;3.63;1.67;;;;;;;23.92;62.01;98310.44;5032069;28;20036;-84
2023/07/12 09:19:31;;;;;;;2.90;2.20;;;;;;;23.99;61.78;98328.94;5014465;28;20038;-84
2023/07/12 09:22:05;;;;;;;2.75;1.88;;;;;;;24.09;61.98;98329.22;5031299;28;20087;-82
2023/07/12 09:24:31;;;;;;;3.63;2.33;;;;;;;24.21;61.11;98331.91;5032318;28;20083;-84
2023/07/12 09:27:15;;;;;;;2.55;1.98;;;;;;;24.00;61.45;98325.06;5013997;28;20428;-84
2023/07/12 09:29:40;;;;;;;4.65;1.80;;;;;;;24.34;60.60;98338.06;5031099;28;20021;-84
2023/07/12 09:32:21;;;;;;;4.10;2.17;;;;;;;24.21;60.53;98333.84;5030677;28;20033;-84
2023/07/12 09:34:47;;;;;;;1.85;1.75;;;;;;;24.34;60.35;98329.91;5031891;28;20036;-84
2023/07/12 09:37:16;;;;;;;2.22;1.83;;;;;;;24.39;59.92;98346.00;4997735;28;20484;-84
2023/07/12 09:39:51;;;;;;;1.80;1.70;;;;;;;24.28;59.47;98348.47;5031739;28;20076;-84
2023/07/12 09:42:16;;;;;;;1.98;1.77;;;;;;;24.41;58.88;98336.34;5030574;28;20075;-84
2023/07/12 09:44:44;;;;;;;3.28;1.52;;;;;;;24.09;58.73;98318.31;5013837;28;20033;-84
2023/07/12 09:48:01;;;;;;;5.15;1.65;;;;;;;24.42;58.14;98356.22;5030086;28;20037;-84
2023/07/12 09:50:47;;;;;;;6.43;1.42;;;;;;;24.36;57.65;98355.69;5013587;28;20041;-84
2023/07/12 09:53:38;;;;;;;1.17;1.08;;;;;;;24.25;58.43;98349.16;5031695;28;20029;-83
2023/07/12 09:56:31;;;;;;;5.72;1.42;;;;;;;24.37;57.52;98349.09;5030258;28;20049;-84
2023/07/12 09:59:05;;;;;;;2.70;1.35;;;;;;;24.79;56.55;98373.19;5031007;28;20029;-84
2023/07/12 10:01:45;;;;;;;3.05;1.58;;;;;;;24.78;56.13;98377.84;5031694;28;20447;-84
2023/07/12 10:04:43;;;;;;;1.65;1.40;;;;;;;24.82;55.96;98373.25;5031749;28;20075;-84
2023/07/12 10:07:20;;;;;;;1.42;1.33;;;;;;;24.92;56.34;98383.63;5008445;28;20060;-84
2023/07/12 10:09:48;;;;;;;1.50;1.40;;;;;;;24.96;56.03;98378.28;5031329;28;20083;-84
2023/07/12 10:12:40;;;;;;;1.73;1.50;;;;;;;24.89;56.42;98387.09;5031569;28;20025;-84
2023/07/12 10:15:11;;;;;;;1.63;1.52;;;;;;;25.04;56.05;98386.28;5031142;28;20445;-84
2023/07/12 10:17:40;;;;;;;1.08;1.00;;;;;;;24.87;55.63;98386.66;5030011;28;20021;-83
2023/07/12 10:20:16;;;;;;;2.63;1.88;;;;;;;24.94;55.37;98389.56;5030065;28;20571;-83
2023/07/12 10:22:44;;;;;;;1.15;1.05;;;;;;;24.93;56.72;98396.16;5029918;28;20033;-82
2023/07/12 10:25:25;;;;;;;2.05;1.67;;;;;;;25.00;55.24;98395.53;5031066;28;20038;-84
2023/07/12 10:28:16;;;;;;;1.90;1.20;;;;;;;25.11;55.48;98396.59;5029619;28;20029;-83
2023/07/12 10:30:46;;;;;;;1.75;1.52;;;;;;;25.07;55.36;98390.25;5025185;28;20117;-82
2023/07/12 10:33:29;;;;;;;2.20;1.60;;;;;;;25.00;56.05;98404.53;5029849;28;20091;-84
2023/07/12 10:36:02;;;;;;;1.67;1.42;;;;;;;25.10;55.09;98406.72;5031124;28;20044;-84
2023/07/12 10:38:28;;;;;;;3.25;1.30;;;;;;;24.83;55.64;98404.09;5029626;28;20385;-84
2023/07/12 10:41:32;;;;;;;3.53;1.40;;;;;;;25.02;55.35;98420.53;5013383;28;20026;-81
2023/07/12 10:44:07;;;;;;;2.10;1.90;;;;;;;24.98;54.98;98395.09;4989105;28;20474;-84
2023/07/12 10:46:37;;;;;;;1.85;1.40;;;;;;;25.15;55.04;98422.84;4972550;28;20042;-84
2023/07/12 10:49:11;;;;;;;1.30;1.17;;;;;;;25.09;55.16;98428.91;5011578;28;20053;-83
2023/07/12 10:51:39;;;;;;;1.50;1.40;;;;;;;24.93;54.95;98412.53;5029847;28;20029;-83
2023/07/12 10:54:21;;;;;;;1.70;1.60;;;;;;;24.96;55.36;98421.97;5029579;28;20420;-84
2023/07/12 10:56:52;;;;;;;1.77;1.63;;;;;;;24.78;55.50;98407.06;5030767;28;20067;-84
2023/07/12 10:59:33;;;;;;;1.45;1.35;;;;;;;24.91;55.24;98433.16;5029516;28;20060;-84
2023/07/12 11:02:04;;;;;;;6.00;2.15;;;;;;;24.93;54.71;98422.66;5029602;28;20080;-84
2023/07/12 11:04:29;;;;;;;2.10;1.88;;;;;;;25.03;54.41;98411.22;5029635;28;20063;-84
2023/07/12 11:07:25;;;;;;;1.70;1.60;;;;;;;25.26;53.56;98406.69;5029326;28;20100;-84
2023/07/12 11:09:50;;;;;;;2.35;2.15;;;;;;;25.45;55.31;98411.44;5031507;28;20029;-84
2023/07/12 11:12:33;;;;;;;3.83;2.25;;;;;;;25.60;53.11;98395.00;5033320;28;20112;-84
2023/07/12 11:15:28;;;;;;;3.70;2.88;;;;;;;25.94;52.97;98387.91;5034879;28;20030;-84
2023/07/12 11:18:11;;;;;;;5.38;3.10;;;;;;;26.21;55.70;98392.34;5025527;28;20037;-85
2023/07/12 11:21:00;;;;;;;3.38;3.00;;;;;;;26.51;54.14;98398.81;5034728;28;20191;-82
2023/07/12 11:23:29;;;;;;;3.10;2.50;;;;;;;26.87;51.73;98405.72;5034555;28;20026;-84
2023/07/12 11:26:01;;;;;;;5.90;2.70;;;;;;;26.84;51.49;98389.22;5034237;28;20663;-82
2023/07/12 11:28:39;;;;;;;3.88;2.63;;;;;;;26.74;51.94;98393.34;5034260;28;20028;-84
2023/07/12 11:31:14;;;;;;;3.67;2.72;;;;;;;26.83;50.78;98398.59;5034266;28;20021;-84
2023/07/12 11:33:44;;;;;;;5.00;3.03;;;;;;;27.04;51.29;98405.19;5034213;28;20048;-82
2023/07/12 11:36:18;;;;;;;9.63;3.72;;;;;;;27.12;50.28;98400.63;5034175;28;20021;-82
2023/07/12 11:38:46;;;;;;;5.20;2.50;;;;;;;27.06;50.68;98391.16;5033682;28;20026;-84